Mollusk, Virginia
Current Conditions -  °F | °C
As of 4:35 PM on Monday 24 Nov 2014 (Local Time) from KW75 Reporting Station
Scattered Clouds Scattered Clouds  
Wind Chill: 71°   Ceiling: Unl
Heat Index: 71°   Visibility: 10mi
Dew Point: 60°   Wind: 16mph
Humidity: 70%   Direction: 200°SSW
Pressure: 29.72"   Gusts: 24mph
Location:  37.73°N, 76.54°W
Report Text: KW75 242135Z AUTO 20014G21KT 10SM SCT100 21/16 A2972 RMK AO1 T02140158
Loading
Personal Weather Stations






























Interactive Weather Map New forecast layout! Learn more

10-Day Weather Forecast

Advertisements
Track Severe Weather on mobile